Welcome to Des Moines Iowa Weather. I am an independent private personal weather station on the Northwest Side of Des Moines, Iowa. Just East of Windsor Heights and just West of Glendale . This site is also mobile friendly.

There are no active watches, warnings or advisories


Visit our other weather sites:

Historical Data

Weather Station Setup



Weather Underground History page Text

Daily Summary for May 2, 2017 Units:  English    Metric   Both
« Previous Day
Next Day »
Daily Weekly Monthly Yearly Custom
  High: Low: Average:
Temperature: 63.9 °F 36.1 °F 50.4 °F
Dew Point: 43.0 °F 34.0 °F 37.3 °F
Humidity: 91 % 35 % 64 %
Wind Speed: 10.0 mph 0.0 mph 1.5 mph
Wind Gust: 18.0 mph - -
Wind:- - West
Pressure: 30.05 in 29.71 in -
Precipitation: 0.01 in    
Historical Graphs
 
 
Tabular Data for May 2, 2017
Time Temperature Dew Point Pressure Wind Wind Speed Wind Gust Humidity Rainfall Rate (Hourly)
00:08 41.1 °F 38.0 °F 29.71 in Calm   5.0 mph 88 % 0.00 in
00:23 41.1 °F 38.0 °F 29.71 in Calm     88 % 0.00 in
00:38 41.0 °F 38.0 °F 29.72 in ENE 1.0 mph 3.0 mph 88 % 0.00 in
00:53 40.9 °F 38.0 °F 29.71 in NE 1.0 mph 2.0 mph 88 % 0.00 in
01:08 40.9 °F 38.0 °F 29.72 in Calm   4.0 mph 88 % 0.00 in
01:23 40.9 °F 38.0 °F 29.73 in Calm   3.0 mph 88 % 0.00 in
01:38 40.7 °F 38.0 °F 29.73 in Calm   2.0 mph 88 % 0.00 in
01:53 40.5 °F 37.0 °F 29.73 in NNW 1.0 mph 3.0 mph 88 % 0.00 in
02:08 40.3 °F 37.0 °F 29.73 in NNW 1.0 mph 2.0 mph 88 % 0.00 in
02:23 40.3 °F 37.0 °F 29.73 in NNW 2.0 mph 5.0 mph 89 % 0.00 in
02:38 40.3 °F 37.0 °F 29.74 in West 1.0 mph 4.0 mph 89 % 0.00 in
02:53 40.2 °F 37.0 °F 29.74 in Calm   4.0 mph 88 % 0.00 in
03:08 39.9 °F 37.0 °F 29.74 in Calm   6.0 mph 88 % 0.00 in
03:23 39.8 °F 37.0 °F 29.74 in Calm   4.0 mph 88 % 0.00 in
03:38 39.7 °F 37.0 °F 29.75 in Calm     88 % 0.00 in
03:53 39.3 °F 36.0 °F 29.76 in Calm     87 % 0.00 in
04:08 38.8 °F 35.0 °F 29.77 in Calm     87 % 0.00 in
04:23 38.2 °F 35.0 °F 29.77 in Calm     87 % 0.00 in
04:38 37.7 °F 34.0 °F 29.78 in Calm     87 % 0.00 in
04:53 37.2 °F 34.0 °F 29.78 in Calm     88 % 0.00 in
05:08 36.9 °F 34.0 °F 29.79 in Calm     89 % 0.00 in
05:23 36.6 °F 34.0 °F 29.79 in Calm     89 % 0.00 in
05:38 36.5 °F 34.0 °F 29.80 in Calm   4.0 mph 90 % 0.00 in
05:53 36.4 °F 34.0 °F 29.80 in Calm   1.0 mph 90 % 0.00 in
06:08 36.3 °F 34.0 °F 29.81 in Calm   2.0 mph 91 % 0.00 in
06:23 36.2 °F 34.0 °F 29.82 in Calm   1.0 mph 91 % 0.00 in
06:38 36.2 °F 34.0 °F 29.83 in Calm     91 % 0.00 in
06:54 36.1 °F 34.0 °F 29.83 in Calm     91 % 0.00 in
07:09 36.4 °F 34.0 °F 29.84 in Calm   3.0 mph 91 % 0.00 in
07:24 37.0 °F 35.0 °F 29.86 in Calm   2.0 mph 91 % 0.00 in
07:39 37.9 °F 36.0 °F 29.86 in WNW 2.0 mph 2.0 mph 91 % 0.00 in
07:54 39.4 °F 37.0 °F 29.87 in WNW 2.0 mph 6.0 mph 90 % 0.00 in
08:09 41.0 °F 37.0 °F 29.88 in Calm   5.0 mph 87 % 0.00 in
08:24 42.7 °F 38.0 °F 29.88 in NW 3.0 mph 10.0 mph 82 % 0.00 in
08:39 44.2 °F 37.0 °F 29.89 in NNW 1.0 mph 9.0 mph 77 % 0.00 in
08:54 45.3 °F 38.0 °F 29.89 in WNW 2.0 mph 8.0 mph 75 % 0.00 in
09:09 46.3 °F 37.0 °F 29.90 in NNW 2.0 mph 12.0 mph 71 % 0.00 in
09:39 48.2 °F 37.0 °F 29.91 in NW 3.0 mph 9.0 mph 66 % 0.00 in
09:54 49.3 °F 38.0 °F 29.91 in SW 6.0 mph 8.0 mph 66 % 0.00 in
10:09 50.4 °F 39.0 °F 29.92 in SW 3.0 mph 13.0 mph 65 % 0.00 in
10:24 51.5 °F 38.0 °F 29.93 in North 4.0 mph 8.0 mph 61 % 0.00 in
10:39 52.4 °F 37.0 °F 29.93 in West 4.0 mph 9.0 mph 56 % 0.01 in
10:54 52.8 °F 35.0 °F 29.94 in North 2.0 mph 18.0 mph 52 % 0.01 in
11:10 54.8 °F 38.0 °F 29.95 in NW 2.0 mph 10.0 mph 54 % 0.01 in
11:25 55.5 °F 37.0 °F 29.95 in NW 4.0 mph 15.0 mph 51 % 0.01 in
11:40 56.2 °F 38.0 °F 29.95 in NW 3.0 mph 15.0 mph 50 % 0.00 in
11:55 57.3 °F 40.0 °F 29.96 in WNW 2.0 mph 6.0 mph 53 % 0.00 in
12:10 58.3 °F 38.0 °F 29.96 in North 5.0 mph 12.0 mph 47 % 0.00 in
12:25 58.5 °F 39.0 °F 29.95 in NNW 3.0 mph 10.0 mph 49 % 0.00 in
12:40 58.9 °F 41.0 °F 29.95 in WNW 4.0 mph 5.0 mph 51 % 0.00 in
12:55 58.7 °F 40.0 °F 29.96 in NW 2.0 mph 15.0 mph 50 % 0.00 in
13:10 59.8 °F 41.0 °F 29.96 in North 1.0 mph 11.0 mph 50 % 0.00 in
13:25 60.1 °F 39.0 °F 29.96 in WNW 2.0 mph 11.0 mph 45 % 0.00 in
13:40 60.1 °F 39.0 °F 29.96 in WSW 5.0 mph 10.0 mph 46 % 0.00 in
13:55 60.5 °F 41.0 °F 29.97 in NW 6.0 mph 11.0 mph 49 % 0.00 in
14:10 60.6 °F 40.0 °F 29.97 in North 10.0 mph 12.0 mph 46 % 0.00 in
14:25 62.1 °F 41.0 °F 29.97 in NW 1.0 mph 9.0 mph 47 % 0.00 in
14:40 62.8 °F 40.0 °F 29.98 in NNW 6.0 mph 10.0 mph 44 % 0.00 in
14:56 62.9 °F 40.0 °F 29.98 in NNW 3.0 mph 8.0 mph 44 % 0.00 in
15:10 62.6 °F 41.0 °F 29.97 in North 4.0 mph 13.0 mph 46 % 0.00 in
15:26 62.5 °F 43.0 °F 29.97 in Calm   8.0 mph 49 % 0.00 in
15:40 63.1 °F 39.0 °F 29.97 in NNW 3.0 mph 9.0 mph 41 % 0.00 in
15:55 63.9 °F 40.0 °F 29.97 in North 1.0 mph 8.0 mph 41 % 0.00 in
16:10 62.9 °F 39.0 °F 29.97 in NNW 3.0 mph 9.0 mph 42 % 0.00 in
16:25 63.4 °F 42.0 °F 29.97 in SW 5.0 mph 12.0 mph 45 % 0.00 in
16:40 63.6 °F 39.0 °F 29.97 in Calm   8.0 mph 41 % 0.00 in
16:55 63.9 °F 37.0 °F 29.97 in NW 3.0 mph 6.0 mph 37 % 0.00 in
17:10 63.8 °F 36.0 °F 29.97 in NNW 9.0 mph 10.0 mph 35 % 0.00 in
17:25 63.6 °F 39.0 °F 29.97 in Calm   8.0 mph 40 % 0.00 in
17:41 63.8 °F 36.0 °F 29.97 in NNW 2.0 mph 6.0 mph 35 % 0.00 in
17:56 62.7 °F 36.0 °F 29.97 in NW 5.0 mph 7.0 mph 37 % 0.00 in
18:11 62.2 °F 35.0 °F 29.98 in East 2.0 mph 7.0 mph 36 % 0.00 in
18:26 61.5 °F 35.0 °F 29.97 in WNW 2.0 mph 7.0 mph 37 % 0.00 in
18:41 61.4 °F 34.0 °F 29.98 in NNW 5.0 mph 5.0 mph 36 % 0.00 in
18:56 61.2 °F 34.0 °F 29.98 in Calm   7.0 mph 36 % 0.00 in
19:10 61.0 °F 35.0 °F 29.98 in NW 2.0 mph 2.0 mph 38 % 0.00 in
19:25 60.6 °F 34.0 °F 29.98 in Calm   2.0 mph 37 % 0.00 in
19:41 60.1 °F 36.0 °F 29.98 in Calm   2.0 mph 40 % 0.00 in
19:56 59.3 °F 36.0 °F 29.98 in Calm     42 % 0.00 in
20:11 58.4 °F 36.0 °F 29.98 in Calm     44 % 0.00 in
20:26 57.4 °F 37.0 °F 29.98 in Calm     46 % 0.00 in
20:41 56.1 °F 37.0 °F 30.00 in Calm     50 % 0.00 in
20:56 54.8 °F 37.0 °F 30.00 in Calm     52 % 0.00 in
21:11 53.5 °F 37.0 °F 30.01 in Calm     55 % 0.00 in
21:26 52.6 °F 38.0 °F 30.02 in Calm     57 % 0.00 in
21:41 51.8 °F 38.0 °F 30.02 in Calm     59 % 0.00 in
21:56 51.1 °F 38.0 °F 30.03 in Calm     61 % 0.00 in
22:11 50.5 °F 38.0 °F 30.03 in Calm     62 % 0.00 in
22:26 50.0 °F 38.0 °F 30.04 in Calm     64 % 0.00 in
22:41 49.6 °F 39.0 °F 30.04 in Calm     66 % 0.00 in
22:57 49.3 °F 39.0 °F 30.04 in Calm     67 % 0.00 in
23:11 48.8 °F 38.0 °F 30.05 in Calm     67 % 0.00 in
23:26 48.4 °F 38.0 °F 30.05 in Calm     68 % 0.00 in
23:41 48.1 °F 38.0 °F 30.05 in Calm     67 % 0.00 in
23:56 47.8 °F 38.0 °F 30.05 in Calm   1.0 mph 68 % 0.00 in
Des Moines Weather and Climate
Compliments of Weather Underground - 3 mb

Script developed by  Jim McMurry - jmcmurry@mwt.net Adapted for the template by  Wim van der Kuil - Leuven-Template.eu

You find our weather info also at:

Weather Underground

Equipment we use:

Weather-station
Davis VP2 Plus

Weather-program
Davis Weatherlink.Com

Weather-server
iMac (Retina 4K, 21.5-inch, Late 2015)

Provider
Hostmonster.com

Davis VP2 Plus

Davis Weatherlink.Com

iMac (Retina 4K, 21.5-inch, Late 2015)

Hostmonster.com